Wildomar, CA

9:53 PM PDT on May 29, 2015 (GMT -0700)
Oceanside Municipal | | Change Station
CLOSE
Current Station
Airport
Location: Oceanside,
Elevation: 30 ft
Nearby Weather Stations

Elev 30 ft 33.22 °N, 117.35 °W | Updated 1 hour ago

Clear
Clear
63 °F
Feels Like 63 °F
N
0
Wind Variable Wind from North

Today
High -- | Low -- °F
--% Chance of Precip.
Yesterday
High -- | Low -- °F
Precip. -- in
5:40 AM 7:52 PM
Waxing Gibbous, 88% visible
Pressure 29.92 in
Visibility 9.0 miles
Clouds Overcast 1100 ft
Dew Point 57 °F
Humidity 81%
Rainfall 0.00 in
Snow Depth Not available.
UV 0 out of 12
Pollen 4.10 out of 12
Air Quality Not available.
Flu Activity Sporadic
METAR KOKB 300352Z AUTO 00000KT 9SM OVC011 17/14 A2992 RMK AO2 SLP130 T01720139

More Conditions Fewer Conditions

Pressure 29.92 in
Visibility 9.0 miles
Clouds Overcast 1100 ft
Dew Point 57 °F
Humidity 81%
Rainfall 0.00 in
Snow Depth Not available.
UV 0 out of 12
Pollen 4.10 out of 12
Air Quality Not available.
Flu Activity Sporadic
METAR KOKB 300352Z AUTO 00000KT 9SM OVC011 17/14 A2992 RMK AO2 SLP130 T01720139

More Conditions Fewer Conditions

10-Day Weather Forecast

Almanac

Astronomy

May. 29, 2015 Rise Set
Actual Time
Civil Twilight
Nautical Twilight
Astronomical Twilight
Moon
Length of Visible Light
Length of Day
Tomorrow will be .
, % of the Moon is Illuminated

Today's Extremes

State Highs State Lows

Community

WunderPhotos

Upload Photos

1,825,455 photos uploaded!

WunderBlogs® & News

Nearby

Air Quality

  Air Quality AQ Index Pollutant
Not available.

Snow Depth

Station Depth Elevation

Earthquake Activity

City Distance Mag. Time & Date
Minimum magnitude displayed is 2.5.

Coastal Water Temperatures

Place Temperature

Stations

Nearby Weather Stations

Station Location Temp. Windchill Dew Point Humidity Wind Precip. Elev Updated Type